Time;durP1;ratioP1;P1;durP2;ratioP2;P2;SDS_P1;SDS_P2;PMS_P1;PMS_P2;Temp;Humidity;BMP_temperature;BMP_pressure;BME280_temperature;BME280_humidity;BME280_pressure;Samples;Min_cycle;Max_cycle;Signal;HPM_P1;HPM_P2
2024/04/11 00:01:08;;;;;;;14.23;3.50;;;7.70;99.90;;;;;;5415984;26;20004;-74
2024/04/11 00:03:34;;;;;;;18.42;2.65;;;7.60;99.90;;;;;;5404349;26;20015;-74
2024/04/11 00:06:02;;;;;;;10.48;2.55;;;7.60;99.90;;;;;;5403927;26;19996;-74
2024/04/11 00:08:28;;;;;;;11.60;3.05;;;7.60;99.90;;;;;;5409866;26;20078;-74
2024/04/11 00:10:57;;;;;;;13.30;3.10;;;7.60;99.90;;;;;;5410132;26;20083;-74
2024/04/11 00:13:22;;;;;;;11.80;2.60;;;7.60;99.90;;;;;;5401298;26;19999;-75
2024/04/11 00:15:56;;;;;;;10.85;3.20;;;7.60;99.90;;;;;;5393642;26;20416;-76
2024/04/11 00:18:24;;;;;;;13.80;3.40;;;7.60;99.90;;;;;;5395206;26;20301;-74
2024/04/11 00:20:54;;;;;;;10.65;3.55;;;7.60;99.90;;;;;;5401763;26;20012;-75
2024/04/11 00:23:20;;;;;;;8.48;3.25;;;7.50;99.90;;;;;;5400565;26;20015;-75
2024/04/11 00:25:55;;;;;;;9.77;3.83;;;7.50;99.90;;;;;;5410273;26;20019;-74
2024/04/11 00:28:22;;;;;;;16.92;3.47;;;7.40;99.90;;;;;;5409619;26;20008;-73
2024/04/11 00:30:53;;;;;;;10.65;3.05;;;7.40;99.90;;;;;;5402808;26;20415;-76
2024/04/11 00:33:19;;;;;;;11.85;3.97;;;7.40;99.90;;;;;;5385951;26;19992;-74
2024/04/11 00:35:49;;;;;;;12.45;3.00;;;7.40;99.90;;;;;;5407027;26;20008;-74
2024/04/11 00:38:16;;;;;;;10.60;3.00;;;7.40;99.90;;;;;;5396314;26;20072;-75
2024/04/11 00:40:45;;;;;;;14.60;3.55;;;7.30;99.90;;;;;;5396639;26;20072;-74
2024/04/11 00:43:10;;;;;;;8.90;3.78;;;7.30;99.90;;;;;;5397634;26;20050;-74
2024/04/11 00:45:45;;;;;;;14.65;3.50;;;7.30;99.90;;;;;;5402349;26;20421;-74
2024/04/11 00:48:14;;;;;;;14.50;3.60;;;7.30;99.90;;;;;;5388084;26;20004;-74
2024/04/11 00:50:43;;;;;;;14.73;4.03;;;7.30;99.90;;;;;;5395912;26;20019;-76
2024/04/11 00:53:09;;;;;;;15.15;4.20;;;7.20;99.90;;;;;;5401336;26;19996;-75
2024/04/11 00:55:37;;;;;;;11.48;3.40;;;7.20;99.90;;;;;;5396331;26;20017;-75
2024/04/11 00:58:04;;;;;;;17.85;3.80;;;7.20;99.90;;;;;;5395970;26;20356;-76
2024/04/11 01:00:32;;;;;;;9.77;3.40;;;7.10;99.90;;;;;;5396185;26;20324;-75
2024/04/11 01:02:58;;;;;;;7.57;3.28;;;7.10;99.90;;;;;;5396100;26;20463;-74
2024/04/11 01:05:32;;;;;;;8.65;3.42;;;7.10;99.90;;;;;;5400223;26;20020;-74
2024/04/11 01:07:58;;;;;;;11.88;3.45;;;7.10;99.90;;;;;;5399223;26;20018;-74
2024/04/11 01:10:26;;;;;;;16.95;3.97;;;7.00;99.90;;;;;;5400117;26;20015;-75
2024/04/11 01:12:52;;;;;;;13.38;4.22;;;7.00;99.90;;;;;;5400406;26;19996;-74
2024/04/11 01:15:21;;;;;;;15.63;4.05;;;7.00;99.90;;;;;;5396047;26;20325;-74
2024/04/11 01:17:48;;;;;;;12.25;4.07;;;7.00;99.90;;;;;;5396266;26;20383;-74
2024/04/11 01:20:17;;;;;;;13.15;4.35;;;7.00;99.90;;;;;;5397274;26;20340;-74
2024/04/11 01:22:46;;;;;;;10.00;4.00;;;7.00;99.90;;;;;;5408708;26;20012;-74
2024/04/11 01:25:15;;;;;;;15.10;4.13;;;7.00;99.90;;;;;;5396129;26;20004;-74
2024/04/11 01:27:40;;;;;;;14.23;4.18;;;7.00;99.90;;;;;;5401852;26;20014;-75
2024/04/11 01:30:10;;;;;;;13.00;4.68;;;7.10;99.90;;;;;;5393134;26;20001;-76
2024/04/11 01:32:36;;;;;;;16.17;4.65;;;7.10;99.90;;;;;;5380765;26;20000;-74
2024/04/11 01:35:05;;;;;;;16.90;4.40;;;7.00;99.90;;;;;;5396166;26;20044;-74
2024/04/11 01:37:31;;;;;;;15.95;4.18;;;7.00;99.90;;;;;;5400647;26;20026;-74
2024/04/11 01:40:04;;;;;;;20.23;5.40;;;7.00;99.90;;;;;;5402314;26;20026;-74
2024/04/11 01:42:29;;;;;;;12.17;4.27;;;7.00;99.90;;;;;;5397705;26;20003;-74
2024/04/11 01:44:58;;;;;;;15.02;4.50;;;7.00;99.90;;;;;;5395336;26;20019;-74
2024/04/11 01:47:24;;;;;;;13.30;4.40;;;7.00;99.90;;;;;;5399628;26;20018;-74
2024/04/11 01:49:52;;;;;;;19.98;4.13;;;6.90;99.90;;;;;;5402315;26;20004;-74
2024/04/11 01:52:18;;;;;;;16.92;4.53;;;6.90;99.90;;;;;;5400921;26;20433;-74
2024/04/11 01:54:46;;;;;;;16.63;4.65;;;6.90;99.90;;;;;;5396794;26;20000;-74
2024/04/11 01:57:14;;;;;;;17.67;4.80;;;6.80;99.90;;;;;;5396318;26;20406;-73
2024/04/11 01:59:43;;;;;;;14.77;4.10;;;6.80;99.90;;;;;;5396043;26;20019;-74
2024/04/11 02:02:09;;;;;;;15.95;5.78;;;6.80;99.90;;;;;;5382188;26;20437;-74
2024/04/11 02:04:38;;;;;;;12.85;4.32;;;6.80;99.90;;;;;;5402352;26;20022;-75
2024/04/11 02:07:04;;;;;;;13.02;4.50;;;6.70;99.90;;;;;;5401853;26;20000;-74
2024/04/11 02:09:34;;;;;;;20.55;4.35;;;6.80;99.90;;;;;;5397755;26;20483;-75
2024/04/11 02:12:00;;;;;;;13.40;4.13;;;6.70;99.90;;;;;;5406391;26;20008;-75
2024/04/11 02:14:31;;;;;;;15.68;4.43;;;6.70;99.90;;;;;;5401892;26;20014;-74
2024/04/11 02:16:59;;;;;;;12.15;4.45;;;6.70;99.90;;;;;;5401537;26;20003;-74
2024/04/11 02:19:28;;;;;;;13.20;4.15;;;6.60;99.90;;;;;;5399259;26;20007;-75
2024/04/11 02:21:54;;;;;;;17.73;4.50;;;6.60;99.90;;;;;;5395909;26;20028;-75
2024/04/11 02:24:22;;;;;;;7.97;4.13;;;6.60;99.90;;;;;;5397318;26;20036;-75
2024/04/11 02:26:48;;;;;;;15.55;4.18;;;6.60;99.90;;;;;;5399501;26;20040;-75
2024/04/11 02:29:18;;;;;;;12.65;4.35;;;6.60;99.90;;;;;;5402399;26;20004;-74
2024/04/11 02:31:47;;;;;;;17.17;4.82;;;6.60;99.90;;;;;;5395789;26;20476;-75
2024/04/11 02:34:16;;;;;;;19.80;4.25;;;6.50;99.90;;;;;;5398698;26;20078;-74
2024/04/11 02:36:42;;;;;;;13.65;4.70;;;6.50;99.90;;;;;;5412392;26;20000;-75
2024/04/11 02:39:12;;;;;;;12.60;4.32;;;6.40;99.90;;;;;;5416271;26;20028;-74
2024/04/11 02:41:38;;;;;;;16.27;4.30;;;6.40;99.90;;;;;;5415029;26;20024;-75
2024/04/11 02:44:07;;;;;;;12.60;4.15;;;6.40;99.90;;;;;;5416273;26;20019;-74
2024/04/11 02:46:35;;;;;;;13.85;4.15;;;6.40;99.90;;;;;;5428545;26;20440;-74
2024/04/11 02:49:06;;;;;;;19.65;4.47;;;6.30;99.90;;;;;;5414434;26;20054;-75
2024/04/11 02:51:34;;;;;;;16.80;4.15;;;6.30;99.90;;;;;;5420236;26;20188;-74
2024/04/11 02:54:05;;;;;;;16.40;4.40;;;6.30;99.90;;;;;;5381625;26;20015;-74
2024/04/11 02:56:31;;;;;;;11.88;4.03;;;6.30;99.90;;;;;;5381034;26;20388;-75
2024/04/11 02:59:00;;;;;;;14.27;4.65;;;6.30;99.90;;;;;;5381070;26;20046;-75
2024/04/11 03:01:26;;;;;;;15.63;4.63;;;6.20;99.90;;;;;;5386419;26;20046;-75
2024/04/11 03:03:55;;;;;;;12.00;4.15;;;6.20;99.90;;;;;;5395465;26;20000;-74
2024/04/11 03:06:24;;;;;;;10.95;3.92;;;6.20;99.90;;;;;;5396919;26;20021;-75
2024/04/11 03:08:56;;;;;;;17.90;4.95;;;6.20;99.90;;;;;;5399361;26;20000;-74
2024/04/11 03:11:23;;;;;;;19.20;4.50;;;6.10;99.90;;;;;;5399066;26;20012;-75
2024/04/11 03:13:55;;;;;;;12.82;4.32;;;6.10;99.90;;;;;;5403909;26;19989;-74
2024/04/11 03:16:21;;;;;;;16.63;4.43;;;6.10;99.90;;;;;;5404201;26;20047;-74
2024/04/11 03:18:50;;;;;;;14.45;4.57;;;6.00;99.90;;;;;;5404683;26;20004;-74
2024/04/11 03:21:15;;;;;;;13.77;4.50;;;6.00;99.90;;;;;;5405369;26;19992;-75
2024/04/11 03:23:47;;;;;;;14.00;5.05;;;6.00;99.90;;;;;;5395861;26;20000;-74
2024/04/11 03:26:13;;;;;;;12.88;4.45;;;6.00;99.90;;;;;;5383450;26;19992;-74
2024/04/11 03:28:42;;;;;;;12.23;4.43;;;6.00;99.90;;;;;;5383751;26;20000;-74
2024/04/11 03:31:10;;;;;;;12.52;4.70;;;6.00;99.90;;;;;;5417839;26;20014;-74
2024/04/11 03:33:39;;;;;;;20.38;4.35;;;6.00;99.90;;;;;;5418451;26;20178;-74
2024/04/11 03:36:09;;;;;;;18.30;4.57;;;5.90;99.90;;;;;;5418899;26;20037;-74
2024/04/11 03:38:39;;;;;;;14.10;4.63;;;6.00;99.90;;;;;;5419033;26;20485;-74
2024/04/11 03:41:08;;;;;;;10.00;4.30;;;5.90;99.90;;;;;;5418923;26;20068;-75
2024/04/11 03:43:37;;;;;;;18.13;5.03;;;5.90;99.90;;;;;;5418750;26;20078;-75
2024/04/11 03:46:05;;;;;;;11.15;4.57;;;5.90;99.90;;;;;;5418053;26;20468;-75
2024/04/11 03:48:33;;;;;;;12.77;4.22;;;5.90;99.90;;;;;;5418696;26;19996;-75
2024/04/11 03:51:07;;;;;;;14.35;4.20;;;5.90;99.90;;;;;;5418625;26;20030;-75
2024/04/11 03:53:35;;;;;;;15.45;5.43;;;5.90;99.90;;;;;;5418516;26;20086;-75
2024/04/11 03:56:03;;;;;;;17.98;4.78;;;5.80;99.90;;;;;;5419211;26;19998;-74
2024/04/11 03:58:35;;;;;;;14.10;5.10;;;5.80;99.90;;;;;;5424826;26;19999;-74
2024/04/11 04:01:01;;;;;;;15.93;4.85;;;5.80;99.90;;;;;;5422631;26;19995;-74
2024/04/11 04:03:30;;;;;;;18.38;5.40;;;5.80;99.90;;;;;;5422826;26;20027;-74
2024/04/11 04:05:55;;;;;;;21.35;5.47;;;5.80;99.90;;;;;;5421450;26;19995;-75
2024/04/11 04:08:24;;;;;;;15.02;5.10;;;5.80;99.90;;;;;;5419890;26;20000;-75
2024/04/11 04:10:50;;;;;;;15.52;5.10;;;5.70;99.90;;;;;;5419668;26;20035;-74
2024/04/11 04:13:20;;;;;;;16.08;5.82;;;5.70;99.90;;;;;;5419786;26;20449;-74
2024/04/11 04:15:49;;;;;;;14.05;5.15;;;5.70;99.90;;;;;;5419508;26;19999;-75
2024/04/11 04:18:19;;;;;;;15.60;4.70;;;5.70;99.90;;;;;;5419542;26;19995;-74
2024/04/11 04:20:53;;;;;;;15.27;5.05;;;5.70;99.90;;;;;;5419780;26;19999;-75
2024/04/11 04:23:21;;;;;;;11.77;4.53;;;5.70;99.90;;;;;;5418783;26;19992;-74
2024/04/11 04:25:54;;;;;;;15.27;5.05;;;5.70;99.90;;;;;;5419037;26;20007;-75
2024/04/11 04:28:23;;;;;;;13.35;5.45;;;5.70;99.90;;;;;;5418211;26;20006;-74
2024/04/11 04:30:52;;;;;;;19.08;4.55;;;5.60;99.90;;;;;;5387961;26;20001;-74
2024/04/11 04:33:20;;;;;;;16.60;4.40;;;5.60;99.90;;;;;;5392594;26;20007;-76
2024/04/11 04:35:46;;;;;;;18.77;4.70;;;5.60;99.90;;;;;;5396038;26;20011;-74
2024/04/11 04:38:16;;;;;;;16.38;5.05;;;5.60;99.90;;;;;;5393275;26;19996;-74
2024/04/11 04:40:42;;;;;;;9.43;4.38;;;5.60;99.90;;;;;;5385781;26;20024;-73
2024/04/11 04:43:11;;;;;;;12.75;4.22;;;5.60;99.90;;;;;;5383073;26;20047;-75
2024/04/11 04:45:36;;;;;;;20.25;4.32;;;5.60;99.90;;;;;;5417725;26;20453;-74
2024/04/11 04:48:12;;;;;;;16.33;5.43;;;5.60;99.90;;;;;;5398878;26;20058;-74
2024/04/11 04:50:37;;;;;;;17.63;5.38;;;5.70;99.90;;;;;;5389866;26;20465;-76
2024/04/11 04:53:06;;;;;;;16.15;5.22;;;5.70;99.90;;;;;;5396820;26;20037;-74
2024/04/11 04:55:33;;;;;;;18.77;5.38;;;5.70;99.90;;;;;;5389128;26;20437;-75
2024/04/11 04:58:01;;;;;;;18.33;5.65;;;5.80;99.90;;;;;;5408329;26;20004;-74
2024/04/11 05:00:27;;;;;;;14.70;5.70;;;5.90;99.90;;;;;;5401999;26;20030;-76
2024/04/11 05:02:57;;;;;;;22.50;7.10;;;6.00;99.90;;;;;;5417156;26;20003;-75
2024/04/11 05:05:27;;;;;;;18.75;5.30;;;6.00;99.90;;;;;;5420697;26;20023;-75
2024/04/11 05:07:55;;;;;;;24.02;5.32;;;6.20;99.90;;;;;;5419599;26;20006;-75
2024/04/11 05:10:21;;;;;;;28.10;6.50;;;6.40;99.90;;;;;;5421335;26;20060;-75
2024/04/11 05:12:50;;;;;;;19.98;6.15;;;6.70;99.90;;;;;;5420057;26;19996;-75
2024/04/11 05:15:17;;;;;;;25.77;5.53;;;7.00;99.90;;;;;;5419813;26;19996;-74
2024/04/11 05:17:46;;;;;;;26.17;6.20;;;7.30;99.90;;;;;;5411151;26;20019;-75
2024/04/11 05:20:17;;;;;;;26.40;5.72;;;7.60;99.90;;;;;;5419657;26;19996;-74
2024/04/11 05:22:51;;;;;;;22.33;5.93;;;8.00;99.90;;;;;;5419610;26;19991;-75
2024/04/11 05:25:17;;;;;;;;;;;8.30;99.90;;;;;;5396046;26;20015;-75
2024/04/11 05:27:46;;;;;;;18.67;5.05;;;8.60;99.90;;;;;;5383491;26;19946;-75
2024/04/11 05:30:12;;;;;;;16.35;4.53;;;9.00;99.90;;;;;;5403474;26;20456;-77
2024/04/11 05:32:43;;;;;;;29.50;6.18;;;9.40;99.90;;;;;;5416340;26;20000;-76
2024/04/11 05:35:09;;;;;;;20.63;5.68;;;9.80;99.90;;;;;;5408039;26;19995;-75
2024/04/11 05:37:39;;;;;;;19.17;5.50;;;10.30;99.90;;;;;;5415948;26;20080;-75
2024/04/11 05:40:08;;;;;;;20.75;4.93;;;10.60;99.90;;;;;;5416576;26;19995;-75
2024/04/11 05:42:44;;;;;;;21.35;4.28;;;11.00;99.90;;;;;;5419510;26;19996;-76
2024/04/11 05:45:10;;;;;;;17.15;4.68;;;11.40;99.90;;;;;;5431027;26;20149;-75
2024/04/11 05:47:38;;;;;;;11.68;4.13;;;11.80;99.90;;;;;;5409793;26;20007;-75
2024/04/11 05:50:06;;;;;;;24.20;4.50;;;12.10;99.90;;;;;;5416715;26;20343;-76
2024/04/11 05:52:35;;;;;;;18.35;4.20;;;12.50;99.90;;;;;;5417025;26;20069;-75
2024/04/11 05:55:02;;;;;;;13.70;4.05;;;12.90;99.90;;;;;;5417724;26;20006;-75
2024/04/11 05:57:33;;;;;;;15.05;4.72;;;13.40;99.90;;;;;;5416442;26;20018;-75
2024/04/11 05:59:59;;;;;;;16.70;3.97;;;13.80;99.90;;;;;;5409696;26;20344;-74
2024/04/11 06:02:34;;;;;;;11.88;4.13;;;14.20;99.90;;;;;;5415719;26;20030;-74
2024/04/11 06:05:01;;;;;;;18.05;4.20;;;14.70;99.10;;;;;;5411745;26;20007;-75
2024/04/11 06:07:30;;;;;;;13.35;4.22;;;15.20;98.20;;;;;;5415973;26;20456;-75
2024/04/11 06:09:58;;;;;;;15.48;4.45;;;15.60;96.90;;;;;;5416137;26;20003;-75
2024/04/11 06:12:26;;;;;;;13.75;3.80;;;15.80;95.60;;;;;;5415521;26;20014;-76
2024/04/11 06:14:54;;;;;;;12.25;3.88;;;16.20;95.00;;;;;;5407365;26;20107;-75
2024/04/11 06:17:23;;;;;;;12.55;4.80;;;16.40;93.50;;;;;;5390633;26;20715;-76
2024/04/11 06:19:49;;;;;;;11.90;3.92;;;16.70;92.50;;;;;;5415827;26;20511;-76
2024/04/11 06:22:18;;;;;;;19.48;4.82;;;16.90;91.80;;;;;;5393590;26;20004;-76
2024/04/11 06:24:44;;;;;;;15.27;3.83;;;17.20;90.80;;;;;;5380718;26;20004;-75
2024/04/11 06:27:13;;;;;;;17.55;4.05;;;17.80;90.40;;;;;;5380119;26;20403;-76
2024/04/11 06:29:42;;;;;;;12.63;3.97;;;18.30;87.80;;;;;;5380959;26;20488;-76
2024/04/11 06:32:15;;;;;;;14.05;3.85;;;18.30;85.00;;;;;;5380336;26;20020;-77
2024/04/11 06:34:41;;;;;;;9.65;3.97;;;18.50;83.10;;;;;;5380972;26;20036;-76
2024/04/11 06:37:11;;;;;;;16.33;4.45;;;18.80;81.60;;;;;;5379822;26;20010;-75
2024/04/11 06:39:38;;;;;;;17.55;4.05;;;19.10;79.50;;;;;;5380813;26;20010;-76
2024/04/11 06:42:13;;;;;;;16.80;4.95;;;19.50;77.60;;;;;;5380559;26;20040;-76
2024/04/11 06:44:40;;;;;;;20.33;5.40;;;19.90;75.50;;;;;;5378418;26;20000;-77
2024/04/11 06:47:09;;;;;;;24.27;4.90;;;20.20;75.50;;;;;;5380249;26;19997;-75
2024/04/11 06:49:39;;;;;;;14.77;4.47;;;20.50;71.20;;;;;;5380272;26;20001;-76
2024/04/11 06:52:14;;;;;;;19.90;4.72;;;20.90;69.00;;;;;;5380258;26;20040;-76
2024/04/11 06:54:40;;;;;;;13.77;4.70;;;21.00;66.40;;;;;;5379487;26;20000;-76
2024/04/11 06:57:11;;;;;;;14.15;4.22;;;21.40;65.60;;;;;;5379892;26;20019;-76
2024/04/11 06:59:37;;;;;;;19.58;4.00;;;21.60;62.90;;;;;;5379820;26;20019;-76
2024/04/11 07:02:07;;;;;;;13.80;4.35;;;21.90;61.10;;;;;;5378238;26;20460;-75
2024/04/11 07:04:33;;;;;;;11.93;4.25;;;22.10;59.20;;;;;;5380202;26;20000;-76
2024/04/11 07:07:08;;;;;;;12.45;4.30;;;21.80;59.20;;;;;;5402156;26;20452;-75
2024/04/11 07:09:37;;;;;;;19.65;5.00;;;21.70;59.40;;;;;;5386836;26;19995;-76
2024/04/11 07:12:10;;;;;;;12.20;4.60;;;22.10;59.10;;;;;;5402773;26;20004;-76
2024/04/11 07:14:37;;;;;;;;;;;22.20;58.20;;;;;;5390832;26;20461;-76
2024/04/11 07:17:11;;;;;;;15.63;4.68;;;22.20;58.00;;;;;;5415869;26;19932;-75
2024/04/11 07:19:38;;;;;;;11.48;4.53;;;22.40;57.40;;;;;;5416417;26;20003;-76
2024/04/11 07:22:09;;;;;;;18.55;5.65;;;23.00;55.80;;;;;;5406706;26;20004;-76
2024/04/11 07:24:35;;;;;;;16.67;5.32;;;23.30;55.10;;;;;;5380352;26;20015;-76
2024/04/11 07:27:04;;;;;;;21.30;5.00;;;23.30;54.40;;;;;;5380178;26;20011;-77
2024/04/11 07:29:30;;;;;;;15.93;5.22;;;23.30;53.90;;;;;;5390719;26;20007;-77
2024/04/11 07:31:58;;;;;;;18.13;5.72;;;23.50;53.40;;;;;;5411362;26;20003;-77
2024/04/11 07:34:24;;;;;;;13.70;4.63;;;23.60;53.70;;;;;;5384868;26;20000;-77
2024/04/11 07:36:52;;;;;;;23.02;5.35;;;23.90;52.60;;;;;;5385031;26;20078;-77
2024/04/11 07:39:21;;;;;;;14.48;5.13;;;24.00;52.00;;;;;;5386662;26;20099;-76
2024/04/11 07:42:00;;;;;;;17.60;5.13;;;24.50;51.60;;;;;;5386095;26;20019;-76
2024/04/11 07:44:26;;;;;;;10.82;4.72;;;24.10;50.30;;;;;;5382415;26;20000;-76
2024/04/11 07:46:54;;;;;;;16.05;4.80;;;24.00;50.90;;;;;;5398727;26;20433;-76
2024/04/11 07:49:20;;;;;;;18.38;4.88;;;24.20;50.80;;;;;;5381099;26;19997;-76
2024/04/11 07:51:49;;;;;;;16.25;4.57;;;24.30;50.20;;;;;;5380894;26;20015;-76
2024/04/11 07:54:15;;;;;;;13.18;4.60;;;24.30;49.70;;;;;;5380191;26;20008;-76
2024/04/11 07:56:46;;;;;;;22.90;4.70;;;24.30;48.90;;;;;;5379899;26;20004;-76
2024/04/11 07:59:12;;;;;;;12.75;3.90;;;24.90;49.40;;;;;;5382875;26;20402;-76
2024/04/11 08:01:41;;;;;;;18.77;4.45;;;25.10;47.90;;;;;;5383900;26;20000;-76
2024/04/11 08:04:07;;;;;;;14.95;4.22;;;25.30;47.40;;;;;;5384112;26;19994;-76
2024/04/11 08:06:36;;;;;;;14.23;4.57;;;25.80;46.70;;;;;;5413470;26;20062;-76
2024/04/11 08:09:06;;;;;;;11.43;4.43;;;25.80;46.00;;;;;;5422791;26;20005;-75
2024/04/11 08:11:35;;;;;;;9.73;3.95;;;25.60;45.60;;;;;;5416142;26;20015;-77
2024/04/11 08:14:04;;;;;;;11.43;3.83;;;26.00;45.10;;;;;;5385705;26;20000;-77
2024/04/11 08:16:33;;;;;;;12.13;3.92;;;25.80;44.40;;;;;;5386147;26;20004;-77
2024/04/11 08:19:02;;;;;;;13.80;3.83;;;25.50;44.80;;;;;;5384219;26;20000;-78
2024/04/11 08:21:30;;;;;;;16.45;3.97;;;25.50;45.40;;;;;;5383233;26;20008;-77
2024/04/11 08:24:00;;;;;;;9.32;3.55;;;26.10;44.80;;;;;;5383258;26;20015;-77
2024/04/11 08:26:29;;;;;;;11.80;3.72;;;26.60;44.00;;;;;;5384017;26;20000;-77
2024/04/11 08:28:55;;;;;;;13.90;4.65;;;27.30;42.60;;;;;;5385676;26;20000;-77
2024/04/11 08:31:30;;;;;;;12.65;4.13;;;27.60;41.50;;;;;;5419056;26;19995;-77
2024/04/11 08:33:57;;;;;;;11.38;4.30;;;27.60;40.60;;;;;;5419514;26;20011;-77
2024/04/11 08:36:26;;;;;;;23.08;4.95;;;26.80;42.10;;;;;;5419190;26;19999;-79
2024/04/11 08:38:54;;;;;;;12.45;3.90;;;26.40;41.50;;;;;;5420880;26;20080;-78
2024/04/11 08:41:22;;;;;;;15.07;3.67;;;26.30;41.10;;;;;;5424519;26;19995;-78
2024/04/11 08:43:50;;;;;;;15.20;3.75;;;26.10;42.50;;;;;;5424887;26;20006;-78
2024/04/11 08:46:19;;;;;;;14.52;4.07;;;26.60;43.40;;;;;;5423736;26;20045;-77
2024/04/11 08:48:47;;;;;;;12.63;3.22;;;27.30;40.40;;;;;;5424768;26;20018;-77
2024/04/11 08:51:20;;;;;;;10.10;3.28;;;27.10;40.30;;;;;;5434876;26;20000;-76
2024/04/11 08:53:47;;;;;;;11.20;3.15;;;27.40;40.80;;;;;;5432918;26;20003;-77
2024/04/11 08:56:17;;;;;;;12.50;3.28;;;27.80;38.80;;;;;;5419085;26;20003;-77
2024/04/11 08:58:43;;;;;;;11.07;3.15;;;28.10;39.00;;;;;;5418957;26;20028;-77
2024/04/11 09:01:14;;;;;;;14.40;3.33;;;28.50;37.20;;;;;;5418296;26;20004;-76
2024/04/11 09:03:40;;;;;;;10.65;2.95;;;28.40;37.10;;;;;;5417767;26;20410;-78
2024/04/11 09:06:14;;;;;;;10.20;2.20;;;27.80;36.90;;;;;;5390577;26;20049;-78
2024/04/11 09:08:40;;;;;;;11.02;2.80;;;27.30;36.80;;;;;;5382906;26;20015;-76
2024/04/11 09:11:08;;;;;;;13.18;2.95;;;26.90;37.60;;;;;;5382003;26;20338;-77
2024/04/11 09:13:39;;;;;;;11.40;2.92;;;27.50;38.40;;;;;;5382149;26;20015;-77
2024/04/11 09:16:06;;;;;;;7.82;1.85;;;27.70;37.40;;;;;;5381821;26;20015;-78
2024/04/11 09:18:34;;;;;;;10.23;2.20;;;27.50;36.60;;;;;;5381797;26;20001;-77
2024/04/11 09:21:04;;;;;;;8.00;2.30;;;27.30;38.10;;;;;;5382158;26;20085;-77
2024/04/11 09:23:38;;;;;;;8.27;2.33;;;27.60;38.00;;;;;;5382370;26;20004;-76
2024/04/11 09:26:04;;;;;;;11.07;2.83;;;27.90;36.50;;;;;;5381840;26;20449;-77
2024/04/11 09:28:33;;;;;;;10.77;2.88;;;28.10;36.20;;;;;;5387928;26;20013;-76
2024/04/11 09:31:00;;;;;;;10.32;2.38;;;28.10;35.50;;;;;;5385045;26;20102;-76
2024/04/11 09:33:31;;;;;;;5.28;1.85;;;28.50;35.10;;;;;;5381628;26;20011;-77
2024/04/11 09:36:03;;;;;;;5.78;1.20;;;28.30;35.30;;;;;;5381577;26;19993;-76
2024/04/11 09:38:36;;;;;;;8.02;1.88;;;27.80;34.80;;;;;;5381903;26;20032;-77
2024/04/11 09:41:04;;;;;;;7.13;1.65;;;27.90;34.90;;;;;;5410453;26;20015;-76
2024/04/11 09:43:37;;;;;;;6.47;1.52;;;27.90;35.00;;;;;;5417122;26;20369;-76
2024/04/11 09:46:06;;;;;;;8.93;2.05;;;28.10;34.60;;;;;;5417222;26;20006;-76
2024/04/11 09:48:38;;;;;;;7.80;1.63;;;28.30;33.70;;;;;;5417752;26;20004;-77
2024/04/11 09:51:10;;;;;;;4.90;1.45;;;28.00;33.30;;;;;;5417348;26;20068;-77
2024/04/11 09:53:41;;;;;;;5.93;1.40;;;28.20;33.00;;;;;;5417011;26;19995;-77
2024/04/11 09:56:10;;;;;;;4.90;1.30;;;28.30;33.10;;;;;;5382616;26;20000;-77
2024/04/11 09:58:43;;;;;;;11.20;2.38;;;28.80;33.20;;;;;;5381210;26;20015;-77
2024/04/11 10:01:29;;;;;;;10.15;2.33;;;29.40;32.00;;;;;;5396912;26;20353;-77
2024/04/11 10:04:01;;;;;;;8.35;2.13;;;29.20;32.70;;;;;;5417698;26;20400;-77
2024/04/11 10:06:29;;;;;;;9.15;1.85;;;28.80;31.50;;;;;;5417336;26;19996;-78
2024/04/11 10:09:17;;;;;;;6.53;1.60;;;28.50;32.00;;;;;;5417724;26;20019;-76
2024/04/11 10:11:45;;;;;;;8.45;1.83;;;28.10;33.30;;;;;;5418682;26;20018;-77
2024/04/11 10:14:20;;;;;;;7.45;1.95;;;28.60;34.10;;;;;;5417766;26;20486;-77
2024/04/11 10:16:48;;;;;;;7.82;2.03;;;28.90;32.70;;;;;;5396764;26;20007;-77
2024/04/11 10:19:26;;;;;;;5.13;1.95;;;28.80;31.80;;;;;;5393965;26;20467;-77
2024/04/11 10:21:55;;;;;;;9.90;1.95;;;28.30;31.50;;;;;;5409302;26;20010;-77
2024/04/11 10:24:34;;;;;;;12.15;2.30;;;28.30;33.20;;;;;;5411866;26;20475;-77
2024/04/11 10:27:11;;;;;;;11.13;1.90;;;28.30;33.20;;;;;;5415771;26;20335;-77
2024/04/11 10:29:43;;;;;;;7.80;1.77;;;28.80;33.10;;;;;;5407401;26;20468;-76
2024/04/11 10:32:13;;;;;;;8.88;1.98;;;29.20;32.10;;;;;;5415705;26;20631;-78
2024/04/11 10:34:47;;;;;;;5.63;1.83;;;29.20;31.90;;;;;;5409258;26;20015;-76
2024/04/11 10:37:23;;;;;;;6.78;1.95;;;28.30;32.10;;;;;;5382758;26;20004;-76
2024/04/11 10:39:57;;;;;;;12.38;2.50;;;27.10;32.70;;;;;;5383257;26;20001;-77
2024/04/11 10:42:36;;;;;;;5.32;1.95;;;26.20;35.40;;;;;;5381028;26;20597;-76
2024/04/11 10:45:07;;;;;;;10.02;2.17;;;26.30;36.10;;;;;;5382954;26;20008;-80
2024/04/11 10:47:35;;;;;;;5.03;1.80;;;25.50;35.50;;;;;;5396572;26;20491;-76
2024/04/11 10:50:09;;;;;;;16.80;2.47;;;24.20;37.20;;;;;;5415711;26;20043;-77
2024/04/11 10:52:37;;;;;;;6.18;1.85;;;22.90;38.50;;;;;;5416143;26;19999;-77
2024/04/11 10:55:22;;;;;;;6.95;2.42;;;22.30;40.00;;;;;;5416313;26;20339;-76
2024/04/11 10:57:56;;;;;;;9.98;2.00;;;21.70;39.10;;;;;;5415852;26;20384;-76
2024/04/11 11:01:07;;;;;;;8.75;1.88;;;21.10;40.10;;;;;;5410779;26;20008;-77
2024/04/11 11:03:14;;;;;;;6.00;1.85;;;20.50;39.90;;;;;;5388210;26;20008;-77
2024/04/11 11:05:44;;;;;;;4.13;1.70;;;19.80;41.40;;;;;;5404324;26;20567;-76
2024/04/11 11:08:12;;;;;;;7.43;1.60;;;19.60;43.70;;;;;;5415960;26;20053;-77
2024/04/11 11:10:43;;;;;;;6.10;2.25;;;19.60;43.60;;;;;;5415989;26;20065;-77
2024/04/11 11:13:12;;;;;;;5.60;2.00;;;19.50;44.50;;;;;;5416198;26;20528;-77
2024/04/11 11:15:43;;;;;;;6.63;1.90;;;19.80;45.30;;;;;;5418788;26;20301;-77
2024/04/11 11:18:12;;;;;;;5.40;1.52;;;19.60;43.20;;;;;;5411436;26;20041;-77
2024/04/11 11:20:43;;;;;;;9.50;1.67;;;19.30;43.20;;;;;;5394799;26;20003;-77
2024/04/11 11:23:13;;;;;;;8.13;1.65;;;19.10;43.90;;;;;;5407376;26;20003;-77
2024/04/11 11:25:46;;;;;;;5.40;1.75;;;18.80;44.20;;;;;;5401910;26;20040;-76
2024/04/11 11:28:12;;;;;;;7.65;2.22;;;18.80;44.20;;;;;;5416069;26;20043;-77
2024/04/11 11:30:48;;;;;;;5.20;1.55;;;19.00;44.70;;;;;;5388728;26;20005;-76
2024/04/11 11:33:17;;;;;;;7.63;1.88;;;19.20;44.60;;;;;;5414926;26;19995;-76
2024/04/11 11:35:47;;;;;;;6.82;1.65;;;19.50;45.10;;;;;;5419190;26;20015;-76
2024/04/11 11:38:12;;;;;;;13.73;1.70;;;19.50;44.30;;;;;;5385726;26;20017;-76
2024/04/11 11:40:46;;;;;;;7.32;1.33;;;19.30;45.00;;;;;;5384592;26;20040;-77
2024/04/11 11:43:16;;;;;;;8.35;1.75;;;19.20;44.40;;;;;;5401527;26;20076;-76
2024/04/11 11:46:17;;;;;;;5.22;1.17;;;19.10;44.40;;;;;;5403614;26;20015;-76
2024/04/11 11:48:35;;;;;;;6.25;1.50;;;19.10;43.90;;;;;;5390969;26;20317;-77
2024/04/11 11:51:05;;;;;;;8.40;1.95;;;19.20;44.70;;;;;;5390059;26;20414;-77
2024/04/11 11:53:32;;;;;;;8.77;1.90;;;19.40;44.40;;;;;;5405423;26;20011;-76
2024/04/11 11:56:05;;;;;;;9.43;1.70;;;19.60;42.20;;;;;;5418545;26;20608;-76
2024/04/11 11:58:31;;;;;;;6.47;2.05;;;19.50;42.10;;;;;;5416002;26;20130;-77
2024/04/11 12:01:02;;;;;;;6.47;1.70;;;19.70;42.80;;;;;;5418706;26;20455;-77
2024/04/11 12:03:31;;;;;;;8.07;2.10;;;19.90;43.80;;;;;;5411923;26;20004;-77
2024/04/11 12:06:04;;;;;;;9.05;1.52;;;19.90;44.00;;;;;;5383605;26;20012;-76
2024/04/11 12:08:32;;;;;;;6.63;1.65;;;19.70;44.80;;;;;;5383481;26;20001;-76
2024/04/11 12:11:28;;;;;;;8.20;1.25;;;19.70;44.20;;;;;;5382828;26;20004;-77
2024/04/11 12:14:02;;;;;;;5.45;1.63;;;19.70;43.00;;;;;;5383063;26;20085;-76
2024/04/11 12:16:38;;;;;;;3.38;1.35;;;19.30;44.30;;;;;;5403400;26;20000;-77
2024/04/11 12:19:05;;;;;;;5.65;1.67;;;19.30;43.40;;;;;;5403022;26;20336;-76
2024/04/11 12:21:44;;;;;;;5.93;1.70;;;19.20;44.20;;;;;;5381716;26;20028;-77
2024/04/11 12:24:12;;;;;;;8.27;1.73;;;19.40;44.20;;;;;;5382641;26;20008;-76
2024/04/11 12:26:43;;;;;;;8.85;1.65;;;19.60;44.70;;;;;;5382210;26;20460;-77
2024/04/11 12:29:11;;;;;;;7.45;1.73;;;19.70;43.80;;;;;;5388272;26;20075;-76
2024/04/11 12:31:39;;;;;;;5.95;1.70;;;19.70;43.20;;;;;;5418890;26;20004;-75
2024/04/11 12:34:05;;;;;;;5.45;1.40;;;19.70;42.90;;;;;;5397576;26;20076;-76
2024/04/11 12:36:56;;;;;;;4.85;1.30;;;19.70;42.00;;;;;;5410469;26;20004;-77
2024/04/11 12:39:31;;;;;;;5.70;1.55;;;19.70;42.20;;;;;;5382850;26;20019;-75
2024/04/11 12:42:06;;;;;;;3.85;1.30;;;19.50;41.90;;;;;;5397573;26;20078;-76
2024/04/11 12:44:36;;;;;;;4.05;1.27;;;19.50;42.40;;;;;;5403751;26;19995;-76
2024/04/11 12:47:13;;;;;;;9.60;1.75;;;19.30;41.70;;;;;;5417195;26;20010;-76
2024/04/11 12:49:42;;;;;;;5.75;1.67;;;19.20;43.30;;;;;;5393047;26;20103;-76
2024/04/11 12:52:11;;;;;;;5.15;1.50;;;19.40;43.30;;;;;;5410836;26;20003;-76
2024/04/11 12:54:40;;;;;;;4.93;1.38;;;19.50;42.70;;;;;;5408096;26;20036;-76
2024/04/11 12:57:11;;;;;;;7.05;1.52;;;19.50;42.60;;;;;;5391767;26;20035;-77